createdAt,value
2018-07-08T00:01:42.475Z,64.40
2018-07-08T00:04:14.026Z,64.60
2018-07-08T00:06:43.848Z,64.70
2018-07-08T00:09:12.645Z,64.80
2018-07-08T00:11:43.277Z,65.00
2018-07-08T00:14:12.427Z,64.90
2018-07-08T00:16:42.172Z,64.90
2018-07-08T00:19:19.297Z,65.10
2018-07-08T00:21:52.478Z,65.40
2018-07-08T00:24:30.776Z,65.40
2018-07-08T00:27:01.682Z,65.60
2018-07-08T00:29:33.618Z,65.80
2018-07-08T00:32:02.863Z,66.10
2018-07-08T00:34:31.511Z,66.20
2018-07-08T00:37:01.977Z,66.50
2018-07-08T00:39:32.790Z,66.80
2018-07-08T00:42:02.178Z,67.00
2018-07-08T00:44:32.062Z,67.10
2018-07-08T00:47:09.487Z,67.50
2018-07-08T00:49:42.722Z,67.50
2018-07-08T00:52:12.260Z,67.60
2018-07-08T00:54:53.419Z,67.80
2018-07-08T00:57:22.924Z,67.90
2018-07-08T00:59:55.557Z,69.10
2018-07-08T01:05:03.120Z,68.80
2018-07-08T01:10:10.062Z,69.40
2018-07-08T01:12:39.118Z,69.60
2018-07-08T01:15:08.221Z,70.00
2018-07-08T01:17:37.733Z,70.20
2018-07-08T01:20:06.399Z,70.60
2018-07-08T01:22:36.301Z,71.10
2018-07-08T01:25:10.882Z,71.60
2018-07-08T01:27:39.998Z,72.00
2018-07-08T01:30:09.464Z,72.30
2018-07-08T01:32:38.549Z,72.80
2018-07-08T01:35:07.071Z,73.10
2018-07-08T01:37:36.024Z,73.80
2018-07-08T01:40:05.361Z,74.20
2018-07-08T01:42:34.600Z,75.10
2018-07-08T01:45:04.203Z,75.60
2018-07-08T01:47:32.689Z,76.40
2018-07-08T01:50:01.618Z,77.10
2018-07-08T01:52:30.204Z,77.70
2018-07-08T01:54:58.881Z,78.30
2018-07-08T01:57:27.701Z,79.20
2018-07-08T01:59:56.536Z,80.10
2018-07-08T02:02:26.026Z,80.90
2018-07-08T02:04:55.185Z,81.50
2018-07-08T02:07:24.359Z,82.20
2018-07-08T02:09:54.738Z,82.90
2018-07-08T02:12:24.053Z,83.50
2018-07-08T02:14:54.210Z,83.90
2018-07-08T02:17:23.217Z,84.20
2018-07-08T02:19:52.761Z,85.10
2018-07-08T02:22:21.593Z,85.80
2018-07-08T02:24:50.551Z,86.80
2018-07-08T02:27:19.769Z,87.80
2018-07-08T02:29:48.831Z,88.80
2018-07-08T02:32:18.079Z,89.30
2018-07-08T02:34:47.716Z,90.00
2018-07-08T02:37:17.657Z,90.70
2018-07-08T02:39:47.151Z,90.70
2018-07-08T02:42:17.206Z,91.30
2018-07-08T02:44:47.350Z,91.50
2018-07-08T02:47:17.414Z,92.10
2018-07-08T02:49:46.510Z,92.20
2018-07-08T02:52:16.217Z,92.40
2018-07-08T02:54:45.826Z,92.80
2018-07-08T02:57:15.013Z,93.00
2018-07-08T02:59:44.653Z,93.20
2018-07-08T03:02:14.216Z,93.30
2018-07-08T03:04:43.224Z,93.50
2018-07-08T03:07:11.904Z,93.60
2018-07-08T03:09:41.856Z,93.80
2018-07-08T03:12:10.878Z,94.60
2018-07-08T03:14:39.839Z,94.80
2018-07-08T03:17:09.080Z,94.60
2018-07-08T03:19:38.724Z,94.70
2018-07-08T03:22:07.752Z,94.80
2018-07-08T03:24:36.428Z,94.80
2018-07-08T03:27:06.276Z,95.00
2018-07-08T03:29:36.033Z,95.00
2018-07-08T03:32:05.510Z,95.10
2018-07-08T03:34:34.499Z,95.20
2018-07-08T03:37:03.569Z,95.30
2018-07-08T03:39:32.802Z,95.20
2018-07-08T03:42:01.840Z,95.20
2018-07-08T03:44:31.253Z,95.40
2018-07-08T03:47:00.785Z,95.50
2018-07-08T03:49:30.023Z,95.60
2018-07-08T03:51:59.216Z,95.70
2018-07-08T03:54:29.891Z,95.90
2018-07-08T03:56:58.913Z,96.10
2018-07-08T03:59:28.145Z,96.30
2018-07-08T04:01:57.816Z,96.20
2018-07-08T04:04:27.143Z,95.80
2018-07-08T04:06:56.236Z,95.20
2018-07-08T04:09:25.071Z,94.50
2018-07-08T04:11:53.964Z,93.80
2018-07-08T04:14:23.483Z,93.20
2018-07-08T04:16:52.383Z,93.40
2018-07-08T04:19:20.936Z,93.10
2018-07-08T04:21:50.028Z,93.10
2018-07-08T04:24:19.115Z,93.20
2018-07-08T04:26:48.448Z,93.10
2018-07-08T04:29:17.284Z,92.70
2018-07-08T04:31:46.150Z,92.40
2018-07-08T04:34:15.339Z,92.60
2018-07-08T04:36:44.903Z,92.20
2018-07-08T04:39:13.855Z,92.10
2018-07-08T04:41:42.822Z,92.10
2018-07-08T04:44:11.645Z,92.10
2018-07-08T04:46:40.763Z,91.90
2018-07-08T04:49:09.732Z,91.80
2018-07-08T04:51:38.879Z,91.90
2018-07-08T04:54:07.972Z,92.10
2018-07-08T04:56:37.336Z,92.00
2018-07-08T04:59:06.358Z,91.90
2018-07-08T05:01:35.324Z,91.60
2018-07-08T05:04:04.725Z,92.00
2018-07-08T05:06:33.999Z,92.00
2018-07-08T05:09:03.838Z,92.00
2018-07-08T05:11:32.951Z,91.80
2018-07-08T05:14:01.579Z,91.60
2018-07-08T05:16:30.564Z,91.40
2018-07-08T05:18:59.601Z,91.40
2018-07-08T05:21:28.204Z,91.30
2018-07-08T05:23:58.336Z,90.80
2018-07-08T05:26:27.523Z,90.30
2018-07-08T05:28:56.232Z,90.10
2018-07-08T05:31:28.235Z,89.80
2018-07-08T05:33:57.271Z,89.30
2018-07-08T05:36:26.004Z,88.30
2018-07-08T05:38:54.884Z,88.60
2018-07-08T05:41:23.915Z,88.30
2018-07-08T05:43:53.872Z,87.30
2018-07-08T05:46:22.605Z,87.50
2018-07-08T05:48:51.452Z,88.00
2018-07-08T05:51:20.606Z,87.80
2018-07-08T05:53:50.383Z,86.60
2018-07-08T05:56:19.536Z,85.20
2018-07-08T05:58:48.648Z,85.30
2018-07-08T06:01:17.769Z,85.60
2018-07-08T06:03:47.587Z,84.90
2018-07-08T06:06:17.970Z,84.30
2018-07-08T06:08:47.102Z,83.90
2018-07-08T06:11:16.375Z,83.90
2018-07-08T06:13:44.406Z,84.10
2018-07-08T06:16:13.326Z,83.80
2018-07-08T06:18:43.043Z,84.10
2018-07-08T06:21:12.336Z,84.00
2018-07-08T06:23:42.036Z,84.00
2018-07-08T06:26:11.186Z,84.80
2018-07-08T06:28:40.865Z,84.50
2018-07-08T06:31:10.563Z,83.90
2018-07-08T06:33:41.193Z,83.20
2018-07-08T06:36:10.200Z,83.40
2018-07-08T06:38:40.091Z,84.30
2018-07-08T06:41:09.778Z,85.10
2018-07-08T06:43:39.298Z,85.20
2018-07-08T06:46:09.055Z,84.50
2018-07-08T06:48:39.091Z,84.70
2018-07-08T06:51:07.867Z,84.10
2018-07-08T06:53:37.466Z,83.50
2018-07-08T06:56:06.714Z,82.40
2018-07-08T06:58:36.798Z,82.10
2018-07-08T07:01:06.325Z,81.70
2018-07-08T07:03:35.923Z,81.70
2018-07-08T07:06:06.214Z,80.20
2018-07-08T07:08:36.052Z,79.90
2018-07-08T07:11:06.376Z,78.70
2018-07-08T07:13:35.217Z,78.40
2018-07-08T07:16:04.621Z,79.10
2018-07-08T07:18:33.760Z,77.40
2018-07-08T07:21:03.129Z,76.40
2018-07-08T07:23:33.425Z,74.30
2018-07-08T07:26:03.351Z,73.00
2018-07-08T07:28:32.858Z,72.50
2018-07-08T07:31:02.137Z,72.80
2018-07-08T07:33:31.961Z,72.40
2018-07-08T07:36:01.590Z,72.30
2018-07-08T07:38:30.558Z,72.20
2018-07-08T07:40:59.990Z,70.40
2018-07-08T07:43:28.989Z,70.30
2018-07-08T07:50:55.602Z,66.90
2018-07-08T07:53:24.699Z,65.90
2018-07-08T07:55:54.071Z,65.60
2018-07-08T07:58:22.860Z,66.50
2018-07-08T08:00:53.336Z,66.40
2018-07-08T08:03:24.300Z,66.30
2018-07-08T08:05:53.183Z,66.60
2018-07-08T08:08:22.762Z,65.70
2018-07-08T08:10:52.834Z,65.30
2018-07-08T08:13:21.778Z,64.50
2018-07-08T08:20:48.587Z,63.60
2018-07-08T08:23:17.910Z,64.70
2018-07-08T08:25:47.630Z,64.80
2018-07-08T08:28:17.152Z,64.80
2018-07-08T08:30:46.417Z,65.00
2018-07-08T08:33:15.568Z,65.30
2018-07-08T08:35:45.374Z,64.90
2018-07-08T08:38:14.610Z,65.20
2018-07-08T08:40:43.821Z,64.90
2018-07-08T08:43:14.395Z,65.30
2018-07-08T08:45:44.342Z,65.20
2018-07-08T08:48:13.485Z,65.20
2018-07-08T08:50:43.833Z,64.90
2018-07-08T08:53:13.402Z,65.50
2018-07-08T08:55:43.314Z,65.80
2018-07-08T08:58:13.405Z,66.10
2018-07-08T09:00:43.281Z,66.10
2018-07-08T09:03:14.475Z,66.10
2018-07-08T09:05:44.108Z,65.90
2018-07-08T09:08:15.237Z,65.50
2018-07-08T09:10:45.167Z,65.60
2018-07-08T09:13:14.402Z,66.40
2018-07-08T09:15:43.376Z,66.60
2018-07-08T09:18:12.206Z,66.40
2018-07-08T09:20:42.154Z,65.60
2018-07-08T09:23:12.538Z,65.10
2018-07-08T09:25:42.162Z,64.60
2018-07-08T09:28:13.008Z,64.50
2018-07-08T09:30:43.445Z,63.20
2018-07-08T09:33:13.982Z,63.00
2018-07-08T09:35:44.057Z,63.20
2018-07-08T09:38:13.283Z,63.50
2018-07-08T09:40:42.269Z,63.20
2018-07-08T09:43:12.194Z,62.60
2018-07-08T09:45:41.273Z,62.50
2018-07-08T09:48:11.012Z,62.00
2018-07-08T09:50:45.100Z,63.20
2018-07-08T09:53:16.073Z,62.70
2018-07-08T09:55:47.084Z,61.40
2018-07-08T09:58:17.021Z,60.00
2018-07-08T10:00:48.102Z,59.40
2018-07-08T10:03:19.545Z,60.20
2018-07-08T10:05:49.646Z,59.80
2018-07-08T10:08:21.054Z,59.60
2018-07-08T10:10:50.908Z,58.90
2018-07-08T10:13:20.510Z,57.70
2018-07-08T10:15:52.466Z,57.90
2018-07-08T10:18:22.661Z,57.60
2018-07-08T10:20:52.681Z,58.20
2018-07-08T10:23:22.588Z,58.60
2018-07-08T10:25:53.318Z,59.20
2018-07-08T10:28:24.099Z,60.20
2018-07-08T10:30:54.820Z,59.70
2018-07-08T10:33:24.882Z,59.80
2018-07-08T10:35:59.964Z,60.20
2018-07-08T10:38:31.611Z,60.30
2018-07-08T10:41:02.267Z,60.50
2018-07-08T10:43:33.177Z,60.50
2018-07-08T10:46:03.760Z,60.40
2018-07-08T10:48:34.119Z,60.00
2018-07-08T10:51:05.489Z,58.60
2018-07-08T10:53:37.696Z,58.20
2018-07-08T10:56:08.128Z,57.70
2018-07-08T10:58:38.915Z,57.80
2018-07-08T11:01:09.436Z,58.40
2018-07-08T11:03:39.890Z,58.80
2018-07-08T11:06:10.360Z,59.40
2018-07-08T11:08:42.171Z,60.30
2018-07-08T11:11:13.517Z,59.60
2018-07-08T11:13:44.040Z,58.90
2018-07-08T11:16:13.944Z,58.20
2018-07-08T11:18:44.042Z,57.60
2018-07-08T11:21:14.380Z,58.00
2018-07-08T11:23:44.558Z,57.80
2018-07-08T11:26:15.052Z,57.80
2018-07-08T11:28:45.136Z,57.40
2018-07-08T11:31:15.076Z,57.60
2018-07-08T11:33:44.916Z,57.50
2018-07-08T11:36:14.878Z,57.70
2018-07-08T11:38:44.646Z,58.10
2018-07-08T11:41:14.487Z,58.40
2018-07-08T11:43:44.299Z,58.50
2018-07-08T11:46:14.052Z,58.80
2018-07-08T11:48:44.526Z,59.50
2018-07-08T11:51:14.830Z,59.50
2018-07-08T11:53:45.932Z,59.70
2018-07-08T11:56:15.437Z,60.00
2018-07-08T11:58:47.347Z,60.30
2018-07-08T12:01:17.395Z,60.50
2018-07-08T12:03:47.630Z,61.10
2018-07-08T12:06:16.973Z,61.60
2018-07-08T12:08:47.141Z,61.90
2018-07-08T12:11:16.757Z,61.70
2018-07-08T12:13:47.046Z,61.80
2018-07-08T12:16:17.307Z,61.80
2018-07-08T12:18:47.649Z,62.00
2018-07-08T12:21:17.973Z,62.60
2018-07-08T12:23:48.113Z,62.50
2018-07-08T12:26:18.317Z,62.30
2018-07-08T12:28:50.125Z,60.70
2018-07-08T12:31:22.999Z,59.70
2018-07-08T12:33:52.784Z,59.80
2018-07-08T12:36:22.580Z,59.30
2018-07-08T12:38:55.259Z,59.50
2018-07-08T12:41:24.819Z,59.50
2018-07-08T12:43:54.402Z,59.60
2018-07-08T12:46:24.204Z,60.70
2018-07-08T12:48:54.800Z,61.10
2018-07-08T12:51:25.001Z,61.30
2018-07-08T12:53:55.171Z,62.20
2018-07-08T12:56:25.559Z,62.90
2018-07-08T12:58:54.705Z,63.00
2018-07-08T13:01:23.671Z,62.00
2018-07-08T13:03:53.176Z,62.10
2018-07-08T13:06:22.753Z,61.40
2018-07-08T13:08:51.856Z,60.00
2018-07-08T13:11:21.061Z,59.70
2018-07-08T13:13:50.359Z,59.80
2018-07-08T13:16:19.377Z,59.80
2018-07-08T13:18:49.242Z,60.30
2018-07-08T13:21:18.259Z,60.70
2018-07-08T13:23:47.423Z,60.00
2018-07-08T13:26:16.547Z,60.30
2018-07-08T13:28:46.151Z,61.00
2018-07-08T13:31:15.232Z,61.60
2018-07-08T13:33:44.320Z,61.60
2018-07-08T13:36:13.063Z,61.00
2018-07-08T13:38:41.937Z,60.80
2018-07-08T13:41:11.682Z,60.10
2018-07-08T13:43:40.525Z,59.70
2018-07-08T13:46:10.945Z,59.90
2018-07-08T13:48:40.183Z,60.40
2018-07-08T13:51:09.511Z,60.70
2018-07-08T13:53:38.537Z,61.40
2018-07-08T13:56:07.890Z,61.50
2018-07-08T13:58:36.815Z,60.80
2018-07-08T14:01:06.555Z,61.20
2018-07-08T14:03:36.326Z,61.10
2018-07-08T14:06:06.943Z,61.50
2018-07-08T14:08:35.551Z,60.20
2018-07-08T14:11:04.632Z,59.50
2018-07-08T14:13:33.312Z,59.90
2018-07-08T14:16:02.721Z,60.10
2018-07-08T14:18:31.906Z,59.60
2018-07-08T14:21:01.035Z,59.50
2018-07-08T14:23:30.713Z,59.80
2018-07-08T14:26:00.256Z,59.60
2018-07-08T14:28:30.955Z,59.80
2018-07-08T14:31:01.138Z,59.20
2018-07-08T14:33:31.261Z,59.30
2018-07-08T14:36:02.975Z,59.80
2018-07-08T14:38:36.384Z,60.70
2018-07-08T14:41:07.874Z,61.20
2018-07-08T14:43:37.959Z,61.70
2018-07-08T14:46:08.109Z,61.40
2018-07-08T14:48:39.611Z,60.40
2018-07-08T14:51:12.147Z,60.00
2018-07-08T14:53:43.279Z,60.50
2018-07-08T14:56:13.400Z,61.00
2018-07-08T14:58:43.322Z,61.50
2018-07-08T15:01:11.699Z,61.80
2018-07-08T15:03:40.893Z,62.50
2018-07-08T15:06:09.877Z,62.90
2018-07-08T15:08:38.741Z,62.90
2018-07-08T15:11:08.089Z,61.70
2018-07-08T15:13:37.915Z,62.10
2018-07-08T15:16:07.212Z,61.70
2018-07-08T15:18:36.306Z,60.90
2018-07-08T15:21:06.269Z,61.10
2018-07-08T15:23:36.338Z,61.80
2018-07-08T15:26:05.625Z,61.70
2018-07-08T15:28:35.081Z,61.30
2018-07-08T15:31:05.039Z,60.90
2018-07-08T15:33:34.294Z,60.30
2018-07-08T15:36:04.915Z,60.60
2018-07-08T15:38:34.841Z,61.10
2018-07-08T15:41:09.034Z,61.10
2018-07-08T15:43:42.502Z,61.80
2018-07-08T15:46:12.198Z,61.80
2018-07-08T15:48:41.907Z,61.90
2018-07-08T15:51:11.552Z,62.10
2018-07-08T15:53:41.349Z,63.00
2018-07-08T15:56:10.997Z,62.10
2018-07-08T15:58:40.739Z,62.10
2018-07-08T16:01:10.824Z,62.10
2018-07-08T16:03:40.442Z,62.10
2018-07-08T16:06:10.254Z,62.50
2018-07-08T16:08:43.014Z,63.00
2018-07-08T16:11:12.998Z,62.70
2018-07-08T16:13:42.524Z,63.00
2018-07-08T16:16:12.258Z,63.10
2018-07-08T16:18:41.552Z,62.80
2018-07-08T16:21:10.540Z,62.30
2018-07-08T16:23:40.020Z,62.60
2018-07-08T16:26:09.397Z,62.80
2018-07-08T16:28:38.390Z,63.00
2018-07-08T16:31:07.356Z,63.30
2018-07-08T16:33:37.482Z,63.60
2018-07-08T16:36:06.778Z,63.80
2018-07-08T16:38:37.335Z,63.90
2018-07-08T16:41:06.612Z,64.00
2018-07-08T16:43:35.720Z,64.10
2018-07-08T16:46:04.783Z,63.80
2018-07-08T16:48:33.900Z,63.60
2018-07-08T16:51:03.064Z,63.60
2018-07-08T16:53:32.192Z,64.60
2018-07-08T16:56:01.098Z,63.80
2018-07-08T16:58:30.247Z,63.90
2018-07-08T17:00:59.283Z,64.10
2018-07-08T17:03:28.330Z,64.50
2018-07-08T17:05:57.437Z,64.70
2018-07-08T17:08:26.326Z,64.50
2018-07-08T17:10:55.748Z,64.70
2018-07-08T17:13:24.971Z,64.80
2018-07-08T17:15:55.028Z,65.00
2018-07-08T17:18:25.074Z,65.00
2018-07-08T17:20:56.186Z,65.10
2018-07-08T17:23:26.866Z,65.40
2018-07-08T17:25:56.734Z,65.40
2018-07-08T17:28:27.799Z,65.60
2018-07-08T17:30:57.696Z,65.70
2018-07-08T17:33:27.858Z,65.90
2018-07-08T17:35:58.616Z,66.10
2018-07-08T17:38:28.876Z,66.10
2018-07-08T17:40:58.995Z,66.10
2018-07-08T17:43:28.812Z,66.30
2018-07-08T17:45:58.146Z,66.20
2018-07-08T17:48:28.736Z,66.20
2018-07-08T17:50:59.031Z,66.30
2018-07-08T17:53:29.139Z,66.40
2018-07-08T17:55:59.120Z,66.80
2018-07-08T17:58:29.747Z,66.90
2018-07-08T18:01:00.186Z,67.10
2018-07-08T18:03:29.826Z,67.20
2018-07-08T18:06:00.468Z,67.40
2018-07-08T18:08:30.823Z,67.50
2018-07-08T18:11:02.320Z,67.50
2018-07-08T18:13:31.482Z,67.60
2018-07-08T18:16:01.297Z,67.60
2018-07-08T18:18:30.442Z,67.70
2018-07-08T18:21:00.804Z,67.90
2018-07-08T18:23:29.876Z,68.10
2018-07-08T18:25:59.567Z,68.40
2018-07-08T18:28:29.834Z,68.50
2018-07-08T18:30:59.841Z,68.60
2018-07-08T18:33:30.433Z,68.80
2018-07-08T18:36:00.467Z,69.20
2018-07-08T18:38:29.287Z,69.70
2018-07-08T18:40:58.218Z,71.30
2018-07-08T18:43:28.611Z,70.90
2018-07-08T18:45:58.009Z,71.50
2018-07-08T18:48:26.864Z,72.30
2018-07-08T18:50:57.172Z,72.60
2018-07-08T18:53:27.344Z,73.20
2018-07-08T18:55:57.510Z,73.70
2018-07-08T18:58:27.969Z,74.10
2018-07-08T19:00:57.052Z,74.80
2018-07-08T19:03:26.579Z,75.30
2018-07-08T19:05:56.690Z,75.80
2018-07-08T19:08:27.892Z,76.50
2018-07-08T19:10:57.656Z,77.20
2018-07-08T19:13:26.678Z,78.10
2018-07-08T19:15:57.319Z,78.80
2018-07-08T19:18:27.876Z,79.30
2018-07-08T19:20:59.583Z,80.10
2018-07-08T19:23:29.391Z,81.00
2018-07-08T19:25:58.752Z,81.90
2018-07-08T19:28:27.876Z,83.40
2018-07-08T19:30:58.005Z,85.50
2018-07-08T19:33:28.018Z,85.90
2018-07-08T19:35:57.489Z,87.20
2018-07-08T19:38:26.486Z,88.70
2018-07-08T19:40:55.514Z,90.00
2018-07-08T19:43:25.292Z,90.60
2018-07-08T19:45:53.890Z,91.20
2018-07-08T19:48:23.674Z,91.80
2018-07-08T19:50:54.304Z,92.30
2018-07-08T19:53:24.665Z,92.50
2018-07-08T19:55:54.104Z,93.00
2018-07-08T19:58:23.860Z,93.40
2018-07-08T20:00:54.135Z,93.90
2018-07-08T20:03:23.148Z,94.20
2018-07-08T20:05:52.818Z,94.60
2018-07-08T20:08:21.656Z,95.20
2018-07-08T20:10:50.188Z,95.60
2018-07-08T20:13:18.620Z,96.10
2018-07-08T20:15:47.646Z,96.40
2018-07-08T20:18:16.111Z,96.80
2018-07-08T20:20:44.575Z,97.00
2018-07-08T20:23:12.996Z,97.40
2018-07-08T20:25:41.390Z,97.70
2018-07-08T20:28:09.779Z,98.10
2018-07-08T20:30:38.247Z,98.40
2018-07-08T20:33:06.933Z,99.10
2018-07-08T20:35:35.283Z,99.30
2018-07-08T20:38:03.579Z,99.60
2018-07-08T20:40:31.933Z,99.90
2018-07-08T20:42:59.672Z,99.90
2018-07-08T20:50:23.056Z,99.90
2018-07-08T20:52:50.965Z,99.90
2018-07-08T20:55:19.133Z,99.90
2018-07-08T20:57:48.411Z,99.90
2018-07-08T21:00:17.429Z,99.90
2018-07-08T21:02:45.818Z,99.90
2018-07-08T21:05:14.633Z,99.90
2018-07-08T21:07:42.979Z,99.90
2018-07-08T21:10:11.801Z,99.90
2018-07-08T21:12:40.034Z,99.90
2018-07-08T21:15:08.392Z,99.90
2018-07-08T21:17:36.787Z,99.90
2018-07-08T21:20:05.159Z,99.90
2018-07-08T21:22:33.677Z,99.90
2018-07-08T21:25:02.185Z,99.90
2018-07-08T21:27:30.429Z,99.90
2018-07-08T21:29:58.721Z,99.90
2018-07-08T21:32:26.919Z,99.90
2018-07-08T21:34:55.876Z,99.90
2018-07-08T21:37:24.388Z,99.90
2018-07-08T21:39:52.761Z,99.90
2018-07-08T21:42:21.225Z,99.90
2018-07-08T21:44:49.537Z,99.90
2018-07-08T21:47:17.890Z,99.90
2018-07-08T21:49:46.766Z,99.90
2018-07-08T21:52:14.937Z,99.90
2018-07-08T21:54:43.325Z,99.90
2018-07-08T21:57:11.739Z,99.90
2018-07-08T21:59:40.021Z,99.90
2018-07-08T22:02:11.372Z,99.90
2018-07-08T22:04:40.314Z,99.90
2018-07-08T22:07:13.963Z,99.90
2018-07-08T22:09:41.763Z,99.90
2018-07-08T22:12:10.238Z,99.90
2018-07-08T22:14:39.174Z,99.90
2018-07-08T22:17:07.781Z,99.90
2018-07-08T22:19:36.795Z,99.90
2018-07-08T22:22:04.883Z,99.90
2018-07-08T22:24:33.151Z,99.90
2018-07-08T22:27:02.183Z,99.90
2018-07-08T22:29:30.458Z,99.90
2018-07-08T22:31:58.701Z,99.90
2018-07-08T22:34:26.653Z,99.90
2018-07-08T22:36:55.183Z,99.90
2018-07-08T22:39:23.150Z,99.90
2018-07-08T22:41:51.083Z,99.90
2018-07-08T22:44:19.480Z,99.90
2018-07-08T22:46:47.634Z,99.90
2018-07-08T22:49:15.761Z,99.90
2018-07-08T22:51:43.933Z,99.90
2018-07-08T22:54:12.621Z,99.90
2018-07-08T22:56:40.589Z,99.90
2018-07-08T22:59:08.781Z,99.90
2018-07-08T23:01:42.400Z,99.90
2018-07-08T23:04:10.565Z,99.90
2018-07-08T23:06:39.199Z,99.90
2018-07-08T23:09:07.505Z,99.90
2018-07-08T23:11:35.732Z,99.90
2018-07-08T23:14:04.273Z,99.90
2018-07-08T23:16:32.445Z,99.90
2018-07-08T23:19:00.671Z,99.90
2018-07-08T23:21:28.918Z,99.90
2018-07-08T23:23:56.829Z,99.90
2018-07-08T23:26:25.249Z,99.90
2018-07-08T23:28:53.911Z,99.90
2018-07-08T23:31:22.402Z,99.90
2018-07-08T23:33:50.636Z,99.90
2018-07-08T23:36:18.982Z,99.90
2018-07-08T23:38:47.439Z,99.90
2018-07-08T23:41:16.261Z,99.90
2018-07-08T23:43:44.905Z,99.90
2018-07-08T23:46:13.219Z,99.90
2018-07-08T23:48:41.552Z,99.90
2018-07-08T23:51:09.599Z,99.90
2018-07-08T23:53:37.657Z,99.90
2018-07-08T23:56:05.644Z,99.90
2018-07-08T23:58:34.631Z,99.90
